Time;durP1;ratioP1;P1;durP2;ratioP2;P2;SDS_P1;SDS_P2;PMS_P1;PMS_P2;Temp;Humidity;BMP_temperature;BMP_pressure;BME280_temperature;BME280_humidity;BME280_pressure;Samples;Min_cycle;Max_cycle;Signal;HPM_P1;HPM_P2
2021/07/19 00:02:36;;;;;;;1.02;0.80;;;;;;;;;;10343306;28;20038;-22
2021/07/19 00:07:39;;;;;;;1.42;0.68;;;;;;;;;;10340804;28;20056;-23
2021/07/19 00:12:42;;;;;;;0.88;0.60;;;;;;;;;;10343018;28;20052;-22
2021/07/19 00:17:46;;;;;;;0.68;0.60;;;;;;;;;;10338554;28;20526;-22
2021/07/19 00:22:51;;;;;;;1.48;0.65;;;;;;;;;;10343124;28;20049;-22
2021/07/19 00:27:55;;;;;;;1.30;0.80;;;;;;;;;;10339877;28;20065;-22
2021/07/19 00:33:01;;;;;;;1.83;0.73;;;;;;;;;;10343369;28;20483;-23
2021/07/19 00:38:04;;;;;;;1.02;0.60;;;;;;;;;;10342207;28;20054;-22
2021/07/19 00:43:07;;;;;;;0.80;0.68;;;;;;;;;;10345340;28;20045;-22
2021/07/19 00:48:12;;;;;;;0.60;0.50;;;;;;;;;;10343328;28;20073;-22
2021/07/19 00:53:14;;;;;;;1.17;0.60;;;;;;;;;;10342217;28;20077;-22
2021/07/19 00:58:18;;;;;;;1.52;0.60;;;;;;;;;;10353370;28;20131;-22
2021/07/19 01:03:25;;;;;;;0.95;0.63;;;;;;;;;;10352446;28;20080;-22
2021/07/19 01:08:29;;;;;;;0.60;0.60;;;;;;;;;;10346064;28;20538;-23
2021/07/19 01:13:35;;;;;;;0.65;0.50;;;;;;;;;;10343666;28;20499;-24
2021/07/19 01:18:40;;;;;;;1.40;0.70;;;;;;;;;;10335294;28;20077;-22
2021/07/19 01:24:01;;;;;;;0.63;0.52;;;;;;;;;;10347690;28;20124;-22
2021/07/19 01:29:07;;;;;;;1.08;0.50;;;;;;;;;;10338367;28;20057;-22
2021/07/19 01:34:18;;;;;;;0.60;0.60;;;;;;;;;;10338770;28;20045;-22
2021/07/19 01:39:21;;;;;;;1.02;0.68;;;;;;;;;;10336134;28;20050;-22
2021/07/19 01:44:27;;;;;;;0.65;0.55;;;;;;;;;;10337831;28;20384;-23
2021/07/19 01:49:30;;;;;;;1.10;0.70;;;;;;;;;;10340455;28;20812;-22
2021/07/19 01:54:35;;;;;;;0.82;0.65;;;;;;;;;;10336225;28;20829;-22
2021/07/19 01:59:44;;;;;;;1.27;0.70;;;;;;;;;;10341538;28;20042;-22
2021/07/19 02:04:57;;;;;;;0.68;0.55;;;;;;;;;;10338736;28;20523;-22
2021/07/19 02:10:00;;;;;;;0.88;0.60;;;;;;;;;;10342071;28;20056;-22
2021/07/19 02:15:17;;;;;;;0.50;0.50;;;;;;;;;;10347787;28;20057;-22
2021/07/19 02:20:21;;;;;;;2.65;0.70;;;;;;;;;;10343952;28;20161;-22
2021/07/19 02:25:25;;;;;;;1.10;0.70;;;;;;;;;;10343307;28;20514;-23
2021/07/19 02:30:34;;;;;;;1.77;0.73;;;;;;;;;;10351223;28;20053;-23
2021/07/19 02:35:41;;;;;;;1.05;0.70;;;;;;;;;;10349513;28;20050;-22
2021/07/19 02:40:48;;;;;;;0.80;0.60;;;;;;;;;;10351531;28;20111;-22
2021/07/19 02:45:53;;;;;;;2.17;0.70;;;;;;;;;;10349222;28;20037;-22
2021/07/19 02:50:58;;;;;;;1.10;0.60;;;;;;;;;;10345772;28;20496;-22
2021/07/19 02:56:02;;;;;;;0.68;0.60;;;;;;;;;;10343644;28;20058;-22
2021/07/19 03:01:09;;;;;;;0.75;0.60;;;;;;;;;;10348493;28;20112;-22
2021/07/19 03:06:18;;;;;;;0.88;0.55;;;;;;;;;;10340591;28;20045;-22
2021/07/19 03:11:26;;;;;;;1.05;0.50;;;;;;;;;;10342342;28;20050;-22
2021/07/19 03:16:32;;;;;;;0.70;0.50;;;;;;;;;;10344116;28;20064;-22
2021/07/19 03:21:37;;;;;;;1.40;0.60;;;;;;;;;;10339822;28;20081;-23
2021/07/19 03:26:50;;;;;;;0.90;0.60;;;;;;;;;;10337124;28;20049;-22
2021/07/19 03:31:56;;;;;;;0.70;0.60;;;;;;;;;;10339584;28;20049;-22
2021/07/19 03:36:59;;;;;;;0.95;0.70;;;;;;;;;;10337068;28;20057;-22
2021/07/19 03:42:04;;;;;;;0.98;0.77;;;;;;;;;;10343725;28;20042;-22
2021/07/19 03:47:15;;;;;;;0.75;0.65;;;;;;;;;;10340823;28;20056;-22
2021/07/19 03:52:19;;;;;;;1.23;0.73;;;;;;;;;;10345763;28;20046;-22
2021/07/19 03:57:23;;;;;;;1.27;0.75;;;;;;;;;;10340283;28;20051;-23
2021/07/19 04:02:28;;;;;;;0.77;0.77;;;;;;;;;;10344296;28;20054;-22
2021/07/19 04:07:36;;;;;;;1.77;1.10;;;;;;;;;;10342155;28;20518;-22
2021/07/19 04:12:40;;;;;;;1.20;1.10;;;;;;;;;;10346524;28;20057;-22
2021/07/19 04:17:47;;;;;;;1.45;1.20;;;;;;;;;;10335851;28;20567;-22
2021/07/19 04:22:56;;;;;;;1.20;1.10;;;;;;;;;;10330681;28;20428;-22
2021/07/19 04:27:59;;;;;;;1.10;1.00;;;;;;;;;;10337260;28;20046;-21
2021/07/19 04:33:04;;;;;;;1.48;1.30;;;;;;;;;;10336884;28;20144;-21
2021/07/19 04:38:07;;;;;;;1.20;1.10;;;;;;;;;;10331819;28;20073;-21
2021/07/19 04:43:10;;;;;;;1.20;1.00;;;;;;;;;;10335761;28;20050;-21
2021/07/19 04:48:15;;;;;;;1.40;1.17;;;;;;;;;;10336410;28;20773;-21
2021/07/19 04:53:18;;;;;;;0.95;0.90;;;;;;;;;;10336302;28;20056;-21
2021/07/19 04:58:22;;;;;;;1.13;0.77;;;;;;;;;;10336040;28;20061;-21
2021/07/19 05:03:27;;;;;;;1.20;1.00;;;;;;;;;;10337065;28;20377;-21
2021/07/19 05:08:30;;;;;;;1.58;1.00;;;;;;;;;;10338287;28;20399;-21
2021/07/19 05:13:36;;;;;;;1.95;0.93;;;;;;;;;;10338092;28;20061;-22
2021/07/19 05:18:42;;;;;;;1.25;0.90;;;;;;;;;;10331298;28;20492;-22
2021/07/19 05:23:46;;;;;;;1.50;0.98;;;;;;;;;;10333529;28;20041;-21
2021/07/19 05:28:49;;;;;;;1.55;0.93;;;;;;;;;;10338851;28;20058;-21
2021/07/19 05:33:53;;;;;;;3.22;1.30;;;;;;;;;;10335876;28;20295;-21
2021/07/19 05:38:56;;;;;;;1.70;1.02;;;;;;;;;;10341484;28;20048;-21
2021/07/19 05:43:59;;;;;;;1.73;1.00;;;;;;;;;;10341199;28;20045;-21
2021/07/19 05:49:03;;;;;;;1.40;1.00;;;;;;;;;;10362424;28;20050;-22
2021/07/19 05:54:06;;;;;;;1.55;1.00;;;;;;;;;;10362811;28;20049;-21
2021/07/19 05:59:09;;;;;;;1.50;0.93;;;;;;;;;;10360947;28;20128;-21
2021/07/19 06:04:14;;;;;;;1.40;0.90;;;;;;;;;;10351967;28;20057;-21
2021/07/19 06:09:17;;;;;;;1.80;0.90;;;;;;;;;;10348960;28;20046;-21
2021/07/19 06:14:21;;;;;;;1.13;0.70;;;;;;;;;;10352158;28;20034;-21
2021/07/19 06:19:25;;;;;;;1.10;0.90;;;;;;;;;;10351968;28;20053;-20
2021/07/19 06:24:27;;;;;;;1.13;0.90;;;;;;;;;;10351674;28;20046;-21
2021/07/19 06:29:30;;;;;;;1.17;0.90;;;;;;;;;;10348925;28;20058;-21
2021/07/19 06:34:35;;;;;;;0.75;0.70;;;;;;;;;;10354222;28;20454;-21
2021/07/19 06:39:38;;;;;;;0.77;0.73;;;;;;;;;;10350423;28;20045;-22
2021/07/19 06:44:41;;;;;;;1.23;0.80;;;;;;;;;;10347290;28;20155;-22
2021/07/19 06:49:45;;;;;;;1.20;0.80;;;;;;;;;;10350173;28;20076;-21
2021/07/19 06:54:48;;;;;;;1.27;0.75;;;;;;;;;;10350121;28;20069;-21
2021/07/19 06:59:51;;;;;;;0.90;0.80;;;;;;;;;;10342575;28;20161;-21
2021/07/19 07:04:56;;;;;;;1.05;0.93;;;;;;;;;;10344614;28;20050;-22
2021/07/19 07:09:58;;;;;;;1.70;0.90;;;;;;;;;;10347277;28;20049;-21
2021/07/19 07:15:01;;;;;;;1.00;0.80;;;;;;;;;;10345460;28;20450;-21
2021/07/19 07:20:06;;;;;;;1.08;0.70;;;;;;;;;;10343995;28;20081;-21
2021/07/19 07:25:10;;;;;;;1.23;0.90;;;;;;;;;;10342965;28;20130;-22
2021/07/19 07:30:13;;;;;;;1.77;0.80;;;;;;;;;;10340301;28;20064;-21
2021/07/19 07:35:17;;;;;;;1.60;0.70;;;;;;;;;;10350376;28;20065;-22
2021/07/19 07:40:22;;;;;;;1.30;1.00;;;;;;;;;;10350224;28;20503;-21
2021/07/19 07:45:25;;;;;;;1.25;0.82;;;;;;;;;;10341413;28;20042;-21
2021/07/19 07:50:29;;;;;;;1.70;0.70;;;;;;;;;;10343045;28;20046;-22
2021/07/19 07:55:32;;;;;;;1.42;1.00;;;;;;;;;;10336772;28;20181;-22
2021/07/19 08:00:35;;;;;;;1.30;1.00;;;;;;;;;;10339008;28;20050;-22
2021/07/19 08:05:39;;;;;;;1.65;0.75;;;;;;;;;;10338880;28;20054;-21
2021/07/19 08:10:42;;;;;;;0.90;0.80;;;;;;;;;;10342981;28;20570;-21
2021/07/19 08:15:47;;;;;;;1.65;1.10;;;;;;;;;;10342844;28;20050;-21
2021/07/19 08:20:51;;;;;;;0.80;0.77;;;;;;;;;;10338771;28;20133;-22
2021/07/19 08:25:54;;;;;;;1.20;0.95;;;;;;;;;;10340063;28;20054;-21
2021/07/19 08:31:00;;;;;;;0.77;0.77;;;;;;;;;;10345531;28;20609;-22
2021/07/19 08:36:05;;;;;;;1.50;1.20;;;;;;;;;;10334872;28;20048;-21
2021/07/19 08:41:08;;;;;;;1.95;1.10;;;;;;;;;;10335446;28;20064;-21
2021/07/19 08:46:13;;;;;;;1.42;1.00;;;;;;;;;;10335848;28;20050;-22
2021/07/19 08:51:17;;;;;;;1.50;1.10;;;;;;;;;;10343264;28;20038;-21
2021/07/19 08:56:20;;;;;;;1.55;0.90;;;;;;;;;;10341980;28;20050;-21
2021/07/19 09:01:23;;;;;;;1.30;0.80;;;;;;;;;;10348063;28;20045;-22
2021/07/19 09:06:27;;;;;;;0.95;0.85;;;;;;;;;;10348372;28;20410;-22
2021/07/19 09:11:30;;;;;;;1.73;1.15;;;;;;;;;;10348992;28;20153;-21
2021/07/19 09:16:39;;;;;;;1.05;0.95;;;;;;;;;;10352426;28;20049;-22
2021/07/19 09:21:46;;;;;;;1.98;0.90;;;;;;;;;;10339915;28;20054;-22
2021/07/19 09:26:54;;;;;;;1.48;1.02;;;;;;;;;;10342425;28;20042;-22
2021/07/19 09:31:57;;;;;;;1.35;0.80;;;;;;;;;;10336860;28;20410;-22
2021/07/19 09:37:02;;;;;;;1.45;0.90;;;;;;;;;;10337712;28;20404;-21
2021/07/19 09:42:07;;;;;;;1.52;1.00;;;;;;;;;;10336305;28;20061;-21
2021/07/19 09:47:12;;;;;;;1.15;0.90;;;;;;;;;;10340814;28;20562;-22
2021/07/19 09:52:16;;;;;;;1.35;0.95;;;;;;;;;;10337094;28;20057;-22
2021/07/19 09:57:23;;;;;;;1.73;0.90;;;;;;;;;;10335901;28;20049;-22
2021/07/19 10:02:33;;;;;;;0.80;0.80;;;;;;;;;;10342390;28;20381;-22
2021/07/19 10:07:37;;;;;;;0.73;0.73;;;;;;;;;;10340891;28;21430;-22
2021/07/19 10:12:41;;;;;;;2.00;1.20;;;;;;;;;;10338550;28;20042;-21
2021/07/19 10:17:44;;;;;;;1.88;0.82;;;;;;;;;;10335170;28;20069;-22
2021/07/19 10:22:48;;;;;;;1.00;0.90;;;;;;;;;;10338303;28;20039;-22
2021/07/19 10:27:51;;;;;;;1.20;0.90;;;;;;;;;;10342226;28;20468;-22
2021/07/19 10:32:53;;;;;;;0.70;0.70;;;;;;;;;;10340035;28;20073;-22
2021/07/19 10:37:59;;;;;;;1.20;0.85;;;;;;;;;;10346353;28;20053;-22
2021/07/19 10:43:06;;;;;;;1.58;1.00;;;;;;;;;;10350758;28;20411;-22
2021/07/19 10:48:09;;;;;;;1.33;1.02;;;;;;;;;;10357587;28;20411;-22
2021/07/19 10:53:19;;;;;;;1.15;0.60;;;;;;;;;;10358242;28;20400;-21
2021/07/19 10:58:28;;;;;;;1.00;0.90;;;;;;;;;;10345972;28;20394;-22
2021/07/19 11:03:38;;;;;;;1.15;1.00;;;;;;;;;;10339156;28;20041;-22
2021/07/19 11:08:52;;;;;;;1.17;0.90;;;;;;;;;;10345727;28;20097;-22
2021/07/19 11:13:56;;;;;;;1.60;1.00;;;;;;;;;;10341410;28;20478;-21
2021/07/19 11:19:02;;;;;;;1.60;1.15;;;;;;;;;;10345760;28;20057;-22
2021/07/19 11:24:10;;;;;;;1.77;1.00;;;;;;;;;;10355419;28;20042;-22
2021/07/19 11:29:13;;;;;;;1.08;0.80;;;;;;;;;;10352988;28;20060;-22
2021/07/19 11:34:24;;;;;;;1.50;0.98;;;;;;;;;;10353073;28;20483;-22
2021/07/19 11:39:29;;;;;;;1.48;1.00;;;;;;;;;;10348567;28;20510;-22
2021/07/19 11:44:34;;;;;;;0.80;0.80;;;;;;;;;;10348395;28;20091;-22
2021/07/19 11:49:37;;;;;;;1.10;1.00;;;;;;;;;;10347211;28;20046;-23
2021/07/19 11:54:44;;;;;;;0.80;0.70;;;;;;;;;;10352120;28;20050;-22
2021/07/19 11:59:47;;;;;;;0.98;0.73;;;;;;;;;;10350809;28;20487;-22
2021/07/19 12:04:50;;;;;;;1.13;0.80;;;;;;;;;;10353031;28;20038;-22
2021/07/19 12:10:00;;;;;;;0.82;0.55;;;;;;;;;;10347892;28;20591;-22
2021/07/19 12:15:04;;;;;;;1.42;0.90;;;;;;;;;;10344883;28;20152;-22
2021/07/19 12:20:07;;;;;;;0.70;0.70;;;;;;;;;;10345056;28;20053;-22
2021/07/19 12:25:11;;;;;;;0.85;0.60;;;;;;;;;;10350904;28;20057;-23
2021/07/19 12:30:14;;;;;;;0.60;0.60;;;;;;;;;;10326544;28;20069;-23
2021/07/19 12:35:19;;;;;;;1.05;0.80;;;;;;;;;;10338969;28;20126;-23
2021/07/19 12:40:24;;;;;;;1.48;0.80;;;;;;;;;;10344713;28;20050;-24
2021/07/19 12:45:27;;;;;;;1.25;0.70;;;;;;;;;;10347126;28;20038;-24
2021/07/19 12:50:30;;;;;;;1.25;0.60;;;;;;;;;;10342120;28;20061;-24
2021/07/19 12:55:34;;;;;;;0.70;0.70;;;;;;;;;;10345885;28;20072;-24
2021/07/19 13:00:37;;;;;;;0.80;0.60;;;;;;;;;;10350624;28;20049;-24
2021/07/19 13:05:47;;;;;;;0.60;0.50;;;;;;;;;;10348822;28;20128;-25
2021/07/19 13:10:51;;;;;;;0.68;0.50;;;;;;;;;;10348917;28;20041;-24
2021/07/19 13:15:58;;;;;;;0.80;0.60;;;;;;;;;;10346959;28;20048;-24
2021/07/19 13:21:02;;;;;;;0.50;0.50;;;;;;;;;;10345714;28;20045;-23
2021/07/19 13:26:11;;;;;;;1.52;0.43;;;;;;;;;;10340579;28;20439;-24
2021/07/19 13:31:14;;;;;;;1.10;0.65;;;;;;;;;;10345543;28;20049;-23
2021/07/19 13:36:16;;;;;;;0.52;0.52;;;;;;;;;;10346178;28;20385;-23
2021/07/19 13:41:22;;;;;;;0.57;0.57;;;;;;;;;;10347438;28;20058;-23
2021/07/19 13:46:24;;;;;;;0.55;0.55;;;;;;;;;;10344429;28;20494;-23
2021/07/19 13:51:27;;;;;;;1.10;0.55;;;;;;;;;;10346447;28;20052;-23
2021/07/19 13:56:31;;;;;;;0.50;0.50;;;;;;;;;;10344089;28;20042;-24
2021/07/19 14:01:35;;;;;;;0.73;0.50;;;;;;;;;;10345534;28;20053;-24
2021/07/19 14:06:50;;;;;;;0.55;0.32;;;;;;;;;;10352328;28;20042;-21
2021/07/19 14:11:55;;;;;;;0.52;0.30;;;;;;;;;;10358878;28;20037;-23
2021/07/19 14:16:57;;;;;;;1.25;0.50;;;;;;;;;;10366086;28;20038;-23
2021/07/19 14:22:00;;;;;;;0.90;0.50;;;;;;;;;;10366635;28;20048;-23
2021/07/19 14:27:05;;;;;;;1.30;0.50;;;;;;;;;;10364543;28;20470;-23
2021/07/19 14:32:08;;;;;;;1.10;0.50;;;;;;;;;;10357468;28;20062;-24
2021/07/19 14:37:11;;;;;;;0.90;0.50;;;;;;;;;;10361719;28;20049;-23
2021/07/19 14:42:15;;;;;;;0.90;0.50;;;;;;;;;;10358872;28;20058;-24
2021/07/19 14:47:18;;;;;;;1.42;0.60;;;;;;;;;;10364268;28;20514;-23
2021/07/19 14:52:24;;;;;;;0.70;0.40;;;;;;;;;;10367408;28;20045;-24
2021/07/19 14:57:28;;;;;;;0.95;0.60;;;;;;;;;;10361791;28;20049;-23
2021/07/19 15:02:31;;;;;;;0.35;0.32;;;;;;;;;;10365757;28;20064;-23
2021/07/19 15:07:34;;;;;;;0.77;0.50;;;;;;;;;;10364413;28;20166;-24
2021/07/19 15:12:38;;;;;;;1.58;0.30;;;;;;;;;;10361788;28;20172;-23
2021/07/19 15:17:41;;;;;;;0.75;0.40;;;;;;;;;;10361126;28;20049;-23
2021/07/19 15:22:44;;;;;;;0.70;0.40;;;;;;;;;;10369033;28;20064;-23
2021/07/19 15:27:48;;;;;;;1.13;0.55;;;;;;;;;;10366229;28;20052;-23
2021/07/19 15:32:51;;;;;;;0.65;0.40;;;;;;;;;;10370994;28;20064;-24
2021/07/19 15:37:53;;;;;;;0.75;0.40;;;;;;;;;;10363387;28;20049;-23
2021/07/19 15:42:58;;;;;;;1.85;0.50;;;;;;;;;;10357941;28;20048;-24
2021/07/19 15:48:01;;;;;;;0.50;0.40;;;;;;;;;;10355154;28;20710;-23
2021/07/19 15:53:04;;;;;;;0.80;0.30;;;;;;;;;;10355478;28;20056;-23
2021/07/19 15:58:08;;;;;;;0.77;0.40;;;;;;;;;;10363041;28;20045;-23
2021/07/19 16:03:14;;;;;;;0.50;0.30;;;;;;;;;;10361174;28;20812;-24
2021/07/19 16:08:16;;;;;;;0.60;0.40;;;;;;;;;;10361427;28;20045;-23
2021/07/19 16:13:20;;;;;;;0.93;0.45;;;;;;;;;;10361126;28;20042;-23
2021/07/19 16:18:23;;;;;;;1.70;0.50;;;;;;;;;;10360312;28;20806;-23
2021/07/19 16:23:26;;;;;;;1.58;0.50;;;;;;;;;;10360822;28;20056;-23
2021/07/19 16:28:30;;;;;;;0.30;0.22;;;;;;;;;;10363435;28;20050;-23
2021/07/19 16:33:33;;;;;;;0.25;0.25;;;;;;;;;;10364740;28;20042;-23
2021/07/19 16:38:36;;;;;;;1.88;0.30;;;;;;;;;;10365158;28;20097;-23
2021/07/19 16:43:40;;;;;;;0.75;0.40;;;;;;;;;;10367124;28;20046;-23
2021/07/19 16:48:43;;;;;;;0.50;0.30;;;;;;;;;;10364452;28;20045;-23
2021/07/19 16:53:46;;;;;;;1.08;0.30;;;;;;;;;;10362432;28;20415;-23
2021/07/19 16:58:50;;;;;;;0.77;0.30;;;;;;;;;;10350493;28;21133;-23
2021/07/19 17:03:53;;;;;;;0.73;0.40;;;;;;;;;;10360369;28;20434;-27
2021/07/19 17:08:56;;;;;;;0.93;0.50;;;;;;;;;;10356472;28;20041;-27
2021/07/19 17:14:00;;;;;;;0.32;0.30;;;;;;;;;;10364459;28;20038;-27
2021/07/19 17:19:04;;;;;;;1.15;0.40;;;;;;;;;;10354898;28;20076;-26
2021/07/19 17:24:06;;;;;;;0.20;0.20;;;;;;;;;;10349710;28;20048;-27
2021/07/19 17:29:11;;;;;;;1.65;0.43;;;;;;;;;;10351185;28;20061;-27
2021/07/19 17:34:13;;;;;;;0.50;0.20;;;;;;;;;;10350413;28;20046;-27
2021/07/19 17:39:16;;;;;;;1.17;0.30;;;;;;;;;;10352857;28;20045;-28
2021/07/19 17:44:20;;;;;;;0.40;0.25;;;;;;;;;;10354574;28;20056;-24
2021/07/19 17:49:23;;;;;;;0.50;0.30;;;;;;;;;;10354248;28;20131;-27
2021/07/19 17:54:25;;;;;;;0.70;0.30;;;;;;;;;;10354989;28;20057;-27
2021/07/19 17:59:29;;;;;;;0.47;0.30;;;;;;;;;;10355249;28;20049;-27
2021/07/19 18:04:32;;;;;;;0.35;0.22;;;;;;;;;;10356374;28;20498;-27
2021/07/19 18:09:35;;;;;;;1.08;0.30;;;;;;;;;;10356534;28;20740;-25
2021/07/19 18:14:41;;;;;;;0.70;0.30;;;;;;;;;;10358683;28;20559;-26
2021/07/19 18:19:44;;;;;;;0.65;0.30;;;;;;;;;;10357701;28;20050;-26
2021/07/19 18:24:57;;;;;;;0.40;0.30;;;;;;;;;;10362437;28;20058;-26
2021/07/19 18:35:22;;;;;;;;;;;;;;;;;;10358786;28;20041;-26
2021/07/19 18:40:24;;;;;;;3.05;0.40;;;;;;;;;;10354741;28;20287;-26
2021/07/19 18:45:28;;;;;;;0.70;0.30;;;;;;;;;;10360115;28;20045;-26
2021/07/19 18:50:31;;;;;;;0.30;0.30;;;;;;;;;;10365291;28;20809;-26
2021/07/19 18:55:34;;;;;;;0.73;0.30;;;;;;;;;;10370758;28;20065;-26
2021/07/19 19:00:38;;;;;;;2.17;0.52;;;;;;;;;;10375049;28;20042;-27
2021/07/19 19:05:43;;;;;;;0.32;0.30;;;;;;;;;;10357800;28;20046;-26
2021/07/19 19:10:46;;;;;;;1.83;0.50;;;;;;;;;;10358616;28;20140;-26
2021/07/19 19:15:51;;;;;;;1.70;0.45;;;;;;;;;;10352262;28;20042;-26
2021/07/19 19:20:55;;;;;;;1.00;0.32;;;;;;;;;;10354514;28;20154;-26
2021/07/19 19:25:58;;;;;;;1.88;0.30;;;;;;;;;;10358317;28;20472;-26
2021/07/19 19:31:02;;;;;;;0.65;0.40;;;;;;;;;;10359780;28;20062;-27
2021/07/19 19:36:05;;;;;;;0.60;0.40;;;;;;;;;;10360012;28;20042;-26
2021/07/19 19:41:09;;;;;;;0.65;0.30;;;;;;;;;;10357127;28;20488;-26
2021/07/19 19:46:13;;;;;;;0.93;0.30;;;;;;;;;;10361271;28;20049;-26
2021/07/19 19:51:36;;;;;;;0.40;0.40;;;;;;;;;;10356428;28;20064;-27
2021/07/19 19:56:40;;;;;;;0.32;0.28;;;;;;;;;;10363778;28;20502;-27
2021/07/19 20:01:44;;;;;;;0.82;0.30;;;;;;;;;;10358219;28;20038;-26
2021/07/19 20:06:47;;;;;;;5.00;0.47;;;;;;;;;;10350835;28;20048;-26
2021/07/19 20:11:51;;;;;;;1.70;0.40;;;;;;;;;;10351931;28;20776;-26
2021/07/19 20:16:55;;;;;;;2.42;0.40;;;;;;;;;;10352895;28;20377;-26
2021/07/19 20:21:58;;;;;;;5.25;0.40;;;;;;;;;;10351850;28;20050;-27
2021/07/19 20:27:02;;;;;;;0.40;0.40;;;;;;;;;;10352331;28;20057;-26
2021/07/19 20:32:07;;;;;;;1.25;0.40;;;;;;;;;;10357971;28;20049;-26
2021/07/19 20:37:10;;;;;;;0.43;0.30;;;;;;;;;;10366219;28;20419;-26
2021/07/19 20:42:14;;;;;;;0.85;0.50;;;;;;;;;;10361455;28;20042;-27
2021/07/19 20:47:19;;;;;;;0.80;0.47;;;;;;;;;;10348788;28;20036;-26
2021/07/19 20:52:21;;;;;;;2.22;0.50;;;;;;;;;;10350678;28;20061;-27
2021/07/19 20:57:24;;;;;;;1.80;0.47;;;;;;;;;;10348801;28;20124;-27
2021/07/19 21:02:29;;;;;;;1.25;0.40;;;;;;;;;;10349240;28;20050;-26
2021/07/19 21:07:32;;;;;;;0.50;0.50;;;;;;;;;;10349008;28;20034;-26
2021/07/19 21:12:35;;;;;;;0.82;0.32;;;;;;;;;;10350168;28;20045;-26
2021/07/19 21:17:39;;;;;;;1.95;0.40;;;;;;;;;;10348904;28;20046;-27
2021/07/19 21:22:42;;;;;;;0.50;0.40;;;;;;;;;;10347985;28;20045;-27
2021/07/19 21:27:45;;;;;;;0.30;0.30;;;;;;;;;;10349997;28;20125;-27
2021/07/19 21:32:49;;;;;;;0.38;0.30;;;;;;;;;;10356511;28;20056;-27
2021/07/19 21:37:52;;;;;;;0.68;0.32;;;;;;;;;;10356784;28;20750;-26
2021/07/19 21:42:56;;;;;;;1.75;0.60;;;;;;;;;;10361846;28;20047;-26
2021/07/19 21:48:00;;;;;;;1.23;0.63;;;;;;;;;;10356536;28;20050;-27
2021/07/19 21:53:03;;;;;;;0.55;0.45;;;;;;;;;;10363266;28;20044;-26
2021/07/19 21:58:06;;;;;;;0.98;0.43;;;;;;;;;;10361800;28;20039;-27
2021/07/19 22:03:10;;;;;;;1.00;0.40;;;;;;;;;;10361330;28;20050;-27
2021/07/19 22:08:14;;;;;;;1.13;0.47;;;;;;;;;;10363766;28;20076;-27
2021/07/19 22:13:17;;;;;;;1.50;0.50;;;;;;;;;;10361884;28;20129;-27
2021/07/19 22:18:22;;;;;;;0.30;0.30;;;;;;;;;;10368142;28;20061;-27
2021/07/19 22:23:24;;;;;;;0.55;0.40;;;;;;;;;;10353838;28;20041;-27
2021/07/19 22:28:27;;;;;;;0.40;0.40;;;;;;;;;;10354569;28;20034;-27
2021/07/19 22:33:31;;;;;;;0.40;0.30;;;;;;;;;;10361717;28;20502;-26
2021/07/19 22:38:34;;;;;;;0.32;0.30;;;;;;;;;;10361207;28;20046;-27
2021/07/19 22:43:38;;;;;;;0.52;0.30;;;;;;;;;;10360598;28;20060;-26
2021/07/19 22:48:42;;;;;;;0.88;0.30;;;;;;;;;;10341340;28;20271;-26
2021/07/19 22:53:45;;;;;;;0.93;0.45;;;;;;;;;;10363486;28;20422;-27
2021/07/19 22:58:48;;;;;;;0.25;0.25;;;;;;;;;;10364455;28;20042;-26
2021/07/19 23:03:52;;;;;;;0.60;0.40;;;;;;;;;;10361259;28;20076;-26
2021/07/19 23:08:55;;;;;;;1.10;0.45;;;;;;;;;;10365164;28;20042;-26
2021/07/19 23:13:58;;;;;;;0.70;0.40;;;;;;;;;;10364256;28;20053;-26
2021/07/19 23:19:03;;;;;;;0.45;0.32;;;;;;;;;;10368494;28;20041;-26
2021/07/19 23:24:06;;;;;;;1.35;0.50;;;;;;;;;;10358802;28;20057;-26
2021/07/19 23:29:08;;;;;;;0.30;0.30;;;;;;;;;;10369534;28;20108;-27
2021/07/19 23:34:12;;;;;;;0.60;0.38;;;;;;;;;;10364927;28;20124;-27
2021/07/19 23:39:15;;;;;;;0.50;0.50;;;;;;;;;;10370247;28;20041;-26
2021/07/19 23:44:18;;;;;;;0.50;0.50;;;;;;;;;;10367076;28;20451;-26
2021/07/19 23:49:22;;;;;;;0.55;0.35;;;;;;;;;;10371659;28;20457;-26
2021/07/19 23:54:30;;;;;;;0.60;0.50;;;;;;;;;;10370252;28;20120;-26
2021/07/19 23:59:32;;;;;;;1.13;0.43;;;;;;;;;;10358911;28;20045;-26
